Portada
METAR-TAF:

METAR-TAF

Aeropuertos :

Fuerteventura, España

Aeropuerto de Fuerteventura

latitud: 28-27N, longitud: 013-52W, altitud: 22 m

Observación

El informe se hizo hace 17 minutos, a las 19:30 UTC
Viento 6 kt del suroeste
Temperatura 20°C
Humedad 73%
Presión 1016 hPa
Visibilidad 10 km o más
Escasas nubes a una altura de 3500 ft

METAR: GCFV 211930Z 22006KT 9999 FEW035 20/15 Q1016

Hora: 19:47 (19:47 UTC)

Pronóstico

El informe se hizo hace 5 horas y 47 minutos, a las 14:00 UTC
Pronóstico válido del 21 a las 15 UTC al 22 a las 15 UTC
Viento 12 kt del sur-suroeste
Visibilidad 10 km o más
Escasas nubes a una altura de 2500 ft
Evolucionando progresivamente
del 21 a las 18 UTC al 21 a las 20 UTC
Viento 7 kt del oeste
Probabilidad 40% :
Temporalmente
del 22 a las 03 UTC al 22 a las 15 UTC
Visibilidad: 4500 m
lluvia

TAF: GCFV 211400Z 2115/2215 21012KT 9999 FEW025 TX21/2213Z TN14/2206Z BECMG 2118/2120 27007KT PROB40 TEMPO 2203/2215 4500 RA

Observaciones y pronósticos meteorológicos de más de 4000 aeropuertos (mensajes METAR y TAF).

Los puntos amarillos y rojos representan las estaciones disponibles.

Ponga el ratón en el punto deseado para ver el nombre de la estación.

Haga clic para ver las observaciones y los pronósticos meteorológicos.

Para cambiar el mapa : haga clic en los botones verdes con una cruz de color negro para hacer un zoom, en el botón verde con un guión para alejar o en las flechas verdes para mapas adyacentes.


METAR-TAF: